X  Fermer Données météorologiques d'aviation de Metar        LFLY LYON
Température
3°C Température
2°C Point de rosée
93% Humidité



Vent
7 KM/H
5 MPH
2 M/S
4 KTS



340°
NNO
Conditions actuelles

Cloudy Cloudy
Pression 1015 (hPa) - 29.97 (inHg)
Visibilité 4 (miles) - 7 (km)
Aéroport
Code de l'aéroport LFLY

Emplacement: LYON
Distance: 67 (km)

Metar:
METAR LFLY 030000Z AUTO 34004KT 7000 SCT041 OVC049 03/02 Q1014 TEMPO 4000 -RADZ BKN006

Temps: 03-12-2020 01:00 CET